Time;durP1;ratioP1;P1;durP2;ratioP2;P2;SDS_P1;SDS_P2;PMS_P1;PMS_P2;Temp;Humidity;BMP_temperature;BMP_pressure;BME280_temperature;BME280_humidity;BME280_pressure;Samples;Min_cycle;Max_cycle;Signal;HPM_P1;HPM_P2
2021/12/08 00:00:07;;;;;;;;;;;;;;;29.60;20.63;96184.34;171655;28;799;-55
2021/12/08 00:00:13;;;;;;;;;;;;;;;29.62;20.45;96190.28;171494;28;1090;-56
2021/12/08 00:00:30;;;;;;;;;;;;;;;29.61;20.64;96189.47;171213;28;877;-55
2021/12/08 00:00:55;;;;;;;;;;;;;;;29.62;20.82;96179.66;171012;28;1357;-55
2021/12/08 00:01:00;;;;;;;;;;;;;;;29.55;20.88;96184.91;170862;28;1166;-55
2021/12/08 00:01:07;;;;;;;;;;;;;;;29.51;20.57;96182.75;171263;28;823;-55
2021/12/08 00:01:14;;;;;;;;;;;;;;;29.52;20.46;96182.56;171232;28;1213;-55
2021/12/08 00:01:21;;;;;;;;;;;;;;;29.52;20.60;96179.09;171307;28;818;-55
2021/12/08 00:01:26;;;;;;;;;;;;;;;29.52;20.85;96185.22;170745;28;1008;-55
2021/12/08 00:01:31;;;;;;;;;;;;;;;29.52;20.77;96190.53;170512;28;1000;-54
2021/12/08 00:01:36;;;;;;;;;;;;;;;29.53;20.78;96189.53;171196;28;1175;-55
2021/12/08 00:01:41;;;;;;;;;;;;;;;29.56;20.90;96191.84;171386;28;881;-55
2021/12/08 00:01:47;;;;;;;;;;;;;;;29.57;20.63;96192.69;171212;28;1090;-55
2021/12/08 00:01:52;;;;;;;;;;;;;;;29.60;20.51;96190.47;171336;28;976;-55
2021/12/08 00:01:57;;;;;;;;;;;;;;;29.62;20.91;96180.47;171200;28;1165;-55
2021/12/08 00:02:02;;;;;;;;;;;;;;;29.61;20.43;96178.00;171074;28;904;-54
2021/12/08 00:02:08;;;;;;;;;;;;;;;29.58;20.72;96186.34;170861;28;4268;-55
2021/12/08 00:02:15;;;;;;;;;;;;;;;29.57;20.51;96184.72;171968;28;1003;-55
2021/12/08 00:02:20;;;;;;;;;;;;;;;29.55;20.73;96186.72;171826;28;1098;-55
2021/12/08 00:02:26;;;;;;;;;;;;;;;29.53;20.89;96186.88;172015;28;782;-55
2021/12/08 00:02:32;;;;;;;;;;;;;;;29.54;20.77;96183.22;171758;28;1185;-55
2021/12/08 00:02:37;;;;;;;;;;;;;;;29.55;20.65;96184.06;171921;28;853;-55
2021/12/08 00:02:42;;;;;;;;;;;;;;;29.56;20.85;96183.06;171998;28;909;-55
2021/12/08 00:02:47;;;;;;;;;;;;;;;29.54;20.65;96187.69;171817;28;956;-55
2021/12/08 00:02:52;;;;;;;;;;;;;;;29.59;20.64;96188.00;171901;28;906;-55
2021/12/08 00:02:58;;;;;;;;;;;;;;;29.57;20.47;96188.19;171848;28;1248;-55
2021/12/08 00:03:04;;;;;;;;;;;;;;;29.60;20.70;96182.50;171625;28;1241;-55
2021/12/08 00:03:09;;;;;;;;;;;;;;;29.61;20.61;96181.50;171775;28;1090;-55
2021/12/08 00:03:14;;;;;;;;;;;;;;;29.59;20.53;96183.50;171927;28;738;-55
2021/12/08 00:03:20;;;;;;;;;;;;;;;29.59;20.71;96183.50;171927;28;1126;-55
2021/12/08 00:03:28;;;;;;;;;;;;;;;29.56;20.62;96181.22;171957;28;984;-55
2021/12/08 00:03:33;;;;;;;;;;;;;;;29.58;20.56;96184.53;171738;28;1106;-55
2021/12/08 00:03:38;;;;;;;;;;;;;;;29.58;20.49;96187.19;171971;28;953;-55
2021/12/08 00:03:43;;;;;;;;;;;;;;;29.61;20.74;96178.84;171815;28;1232;-55
2021/12/08 00:03:49;;;;;;;;;;;;;;;29.60;20.63;96184.34;171845;28;1005;-55
2021/12/08 00:03:54;;;;;;;;;;;;;;;29.60;20.53;96187.81;171908;28;1233;-55
2021/12/08 00:03:59;;;;;;;;;;;;;;;29.60;20.70;96179.84;171848;28;790;-56
2021/12/08 00:04:04;;;;;;;;;;;;;;;29.62;20.59;96183.13;171823;28;829;-55
2021/12/08 00:04:09;;;;;;;;;;;;;;;29.62;20.69;96183.13;171791;28;1952;-55
2021/12/08 00:04:15;;;;;;;;;;;;;;;29.60;20.49;96187.81;171226;28;931;-53
2021/12/08 00:04:20;;;;;;;;;;;;;;;29.62;20.42;96184.97;171264;28;1091;-55
2021/12/08 00:04:25;;;;;;;;;;;;;;;29.59;20.60;96188.81;171822;28;954;-55
2021/12/08 00:04:30;;;;;;;;;;;;;;;29.57;20.62;96182.06;171859;28;1137;-55
2021/12/08 00:04:35;;;;;;;;;;;;;;;29.58;20.84;96181.88;171974;28;806;-56
2021/12/08 00:04:41;;;;;;;;;;;;;;;29.62;20.83;96183.13;171824;28;1114;-55
2021/12/08 00:04:46;;;;;;;;;;;;;;;29.61;20.39;96183.31;171913;28;865;-54
2021/12/08 00:04:51;;;;;;;;;;;;;;;29.59;20.46;96180.84;171935;28;832;-54
2021/12/08 00:04:56;;;;;;;;;;;;;;;29.61;20.73;96184.16;171927;28;1249;-55
2021/12/08 00:05:01;;;;;;;;;;;;;;;29.59;20.82;96186.16;171784;28;786;-55
2021/12/08 00:05:07;;;;;;;;;;;;;;;29.59;20.57;96180.84;171746;28;1131;-55
2021/12/08 00:05:12;;;;;;;;;;;;;;;29.60;20.52;96181.69;171981;28;1047;-55
2021/12/08 00:05:18;;;;;;;;;;;;;;;29.57;20.62;96187.38;171768;28;1146;-55
2021/12/08 00:05:23;;;;;;;;;;;;;;;29.55;20.77;96179.59;171976;28;849;-55
2021/12/08 00:05:28;;;;;;;;;;;;;;;29.56;20.41;96180.41;171867;28;1007;-55
2021/12/08 00:05:33;;;;;;;;;;;;;;;29.56;20.64;96178.56;171036;28;1592;-55
2021/12/08 00:05:39;;;;;;;;;;;;;;;29.57;20.72;96179.41;170909;28;1908;-54
2021/12/08 00:05:44;;;;;;;;;;;;;;;29.56;20.65;96170.59;171367;28;1035;-55
2021/12/08 00:05:49;;;;;;;;;;;;;;;29.57;20.60;96184.72;171181;28;1001;-55
2021/12/08 00:05:54;;;;;;;;;;;;;;;29.57;20.44;96179.41;171648;28;1156;-55
2021/12/08 00:06:00;;;;;;;;;;;;;;;29.58;20.42;96181.03;171746;28;948;-56
2021/12/08 00:06:05;;;;;;;;;;;;;;;29.57;20.66;96182.06;171719;28;1131;-55
2021/12/08 00:06:10;;;;;;;;;;;;;;;29.56;20.52;96178.56;171372;28;4297;-55
2021/12/08 00:06:16;;;;;;;;;;;;;;;29.59;20.67;96178.19;170968;28;1902;-55
2021/12/08 00:06:21;;;;;;;;;;;;;;;29.61;20.49;96178.84;171570;28;858;-55
2021/12/08 00:06:26;;;;;;;;;;;;;;;29.62;20.83;96174.34;170646;28;711;-55
2021/12/08 00:06:31;;;;;;;;;;;;;;;29.63;20.57;96179.50;171073;28;1270;-55
2021/12/08 00:06:36;;;;;;;;;;;;;;;29.65;20.71;96176.66;171318;28;862;-55
2021/12/08 00:06:42;;;;;;;;;;;;;;;29.63;20.45;96173.38;171302;28;1138;-56
2021/12/08 00:06:47;;;;;;;;;;;;;;;29.67;20.39;96183.44;171275;28;822;-56
2021/12/08 00:06:52;;;;;;;;;;;;;;;29.67;20.64;96177.31;171250;28;1126;-56
2021/12/08 00:06:57;;;;;;;;;;;;;;;29.67;20.57;96172.81;171310;28;862;-55
2021/12/08 00:07:03;;;;;;;;;;;;;;;29.64;20.74;96175.84;171075;28;1011;-55
2021/12/08 00:07:08;;;;;;;;;;;;;;;29.63;20.65;96176.84;171339;28;801;-54
2021/12/08 00:07:14;;;;;;;;;;;;;;;29.60;20.77;96171.88;171261;28;1173;-55
2021/12/08 00:07:19;;;;;;;;;;;;;;;29.61;20.61;96172.69;171253;28;924;-56
2021/12/08 00:07:24;;;;;;;;;;;;;;;29.60;20.64;96177.19;171294;28;881;-56
2021/12/08 00:07:29;;;;;;;;;;;;;;;29.59;20.46;96177.38;171256;28;1111;-56
2021/12/08 00:07:34;;;;;;;;;;;;;;;29.59;20.84;96177.38;171257;28;873;-55
2021/12/08 00:07:40;;;;;;;;;;;;;;;29.58;20.84;96173.06;171357;28;1114;-55
2021/12/08 00:07:46;;;;;;;;;;;;;;;29.62;20.44;96174.34;171288;28;925;-55
2021/12/08 00:07:51;;;;;;;;;;;;;;;29.62;20.56;96172.50;171370;28;1141;-55
2021/12/08 00:07:56;;;;;;;;;;;;;;;29.60;20.49;96168.41;171383;28;802;-55
2021/12/08 00:08:04;;;;;;;;;;;;;;;29.62;20.61;96166.38;170748;28;1328;-55
2021/12/08 00:08:09;;;;;;;;;;;;;;;29.60;20.76;96174.53;170428;28;1670;-55
2021/12/08 00:08:15;;;;;;;;;;;;;;;29.63;20.65;96174.19;172344;28;1023;-55
2021/12/08 00:08:21;;;;;;;;;;;;;;;29.66;20.72;96165.84;172583;28;837;-55
2021/12/08 00:08:28;;;;;;;;;;;;;;;29.67;20.70;96175.47;172569;28;1162;-55
2021/12/08 00:08:34;;;;;;;;;;;;;;;29.64;20.73;96172.34;172551;28;806;-55
2021/12/08 00:08:39;;;;;;;;;;;;;;;29.62;20.40;96180.47;172510;28;1130;-55
2021/12/08 00:08:59;;;;;;;;;;;;;;;29.62;20.82;96172.50;172559;28;809;-56
2021/12/08 00:09:25;;;;;;;;;;;;;;;29.56;20.59;96169.78;172383;28;1054;-55
2021/12/08 00:10:00;;;;;;;;;;;;;;;29.57;20.54;96169.59;171878;28;1066;-55
2021/12/08 00:10:28;;;;;;;;;;;;;;;29.59;20.60;96170.22;171520;28;4407;-55
2021/12/08 00:13:09;;;;;;;;;;;;;;;29.44;20.87;96158.72;171865;28;731;-55
2021/12/08 00:13:14;;;;;;;;;;;;;;;29.43;20.61;96171.16;171838;28;900;-54
2021/12/08 00:13:19;;;;;;;;;;;;;;;29.46;20.77;96167.31;171810;28;1099;-57
2021/12/08 00:13:25;;;;;;;;;;;;;;;29.46;20.98;96164.66;171916;28;1059;-55
2021/12/08 00:13:31;;;;;;;;;;;;;;;29.45;20.56;96163.00;171813;28;1062;-55
2021/12/08 00:13:36;;;;;;;;;;;;;;;29.43;20.76;96159.72;172013;28;1012;-54
2021/12/08 00:13:42;;;;;;;;;;;;;;;29.42;20.72;96166.88;171875;28;893;-54
2021/12/08 00:13:47;;;;;;;;;;;;;;;29.42;20.87;96171.34;171835;28;1285;-55
2021/12/08 00:13:52;;;;;;;;;;;;;;;29.40;20.88;96168.88;171939;28;1027;-55
2021/12/08 00:13:57;;;;;;;;;;;;;;;29.39;20.79;96169.88;171842;28;1314;-55
2021/12/08 00:14:03;;;;;;;;;;;;;;;29.41;20.92;96167.03;171912;28;4472;-55
2021/12/08 00:14:08;;;;;;;;;;;;;;;29.42;20.78;96164.19;171653;28;1202;-55
2021/12/08 00:14:13;;;;;;;;;;;;;;;29.44;20.85;96159.53;171846;28;837;-56
2021/12/08 00:14:19;;;;;;;;;;;;;;;29.44;20.99;96159.53;171808;28;1119;-55
2021/12/08 00:14:24;;;;;;;;;;;;;;;29.47;20.97;96161.84;171913;28;900;-55
2021/12/08 00:14:29;;;;;;;;;;;;;;;29.47;20.81;96158.38;171860;28;953;-54
2021/12/08 00:14:34;;;;;;;;;;;;;;;29.46;20.92;96162.81;171196;28;991;-56
2021/12/08 00:14:39;;;;;;;;;;;;;;;29.46;20.63;96167.31;171326;28;882;-54
2021/12/08 00:14:45;;;;;;;;;;;;;;;29.44;20.63;96166.69;171433;28;1179;-55
2021/12/08 00:14:50;;;;;;;;;;;;;;;29.44;20.54;96161.38;171278;28;968;-54
2021/12/08 00:14:55;;;;;;;;;;;;;;;29.48;20.68;96160.84;171543;28;1221;-54
2021/12/08 00:15:00;;;;;;;;;;;;;;;29.52;20.82;96163.16;171749;28;834;-55
2021/12/08 00:15:06;;;;;;;;;;;;;;;29.52;20.89;96160.50;171741;28;1142;-55
2021/12/08 00:15:11;;;;;;;;;;;;;;;29.47;20.50;96164.50;171905;28;837;-53
2021/12/08 00:15:16;;;;;;;;;;;;;;;29.47;20.65;96159.19;171837;28;1015;-55
2021/12/08 00:15:21;;;;;;;;;;;;;;;29.47;20.95;96159.19;171840;28;1165;-55
2021/12/08 00:15:26;;;;;;;;;;;;;;;29.46;20.81;96160.16;171892;28;960;-55
2021/12/08 00:15:32;;;;;;;;;;;;;;;29.47;20.59;96156.53;171808;28;1170;-55
2021/12/08 00:15:41;;;;;;;;;;;;;;;29.51;20.95;96165.00;171584;28;1520;-55
2021/12/08 00:15:47;;;;;;;;;;;;;;;29.54;20.81;96163.78;171853;28;885;-55
2021/12/08 00:15:53;;;;;;;;;;;;;;;29.52;20.72;96158.66;171867;28;1206;-55
2021/12/08 00:15:59;;;;;;;;;;;;;;;29.51;20.67;96161.50;171844;28;920;-55
2021/12/08 00:16:06;;;;;;;;;;;;;;;29.52;20.95;96163.97;171130;28;1198;-56
2021/12/08 00:16:11;;;;;;;;;;;;;;;29.53;20.66;96157.66;171162;28;842;-55
2021/12/08 00:16:17;;;;;;;;;;;;;;;29.52;20.80;96156.00;171097;28;1035;-55
2021/12/08 00:16:22;;;;;;;;;;;;;;;29.53;20.47;96155.00;171354;28;1008;-55
2021/12/08 00:16:27;;;;;;;;;;;;;;;29.56;20.89;96154.66;171113;28;1111;-55
2021/12/08 00:16:32;;;;;;;;;;;;;;;29.56;20.69;96154.66;171221;28;984;-55
2021/12/08 00:16:37;;;;;;;;;;;;;;;29.57;20.70;96158.13;171204;28;956;-55
2021/12/08 00:16:42;;;;;;;;;;;;;;;29.57;20.46;96158.97;171111;28;1178;-55
2021/12/08 00:16:48;;;;;;;;;;;;;;;29.56;20.81;96159.97;171251;28;901;-55
2021/12/08 00:16:53;;;;;;;;;;;;;;;29.55;20.72;96158.31;171249;28;1111;-55
2021/12/08 00:16:58;;;;;;;;;;;;;;;29.51;20.79;96154.38;171155;28;932;-56
2021/12/08 00:17:03;;;;;;;;;;;;;;;29.49;20.67;96159.00;171008;28;1130;-55
2021/12/08 00:17:09;;;;;;;;;;;;;;;29.48;20.47;96154.72;171236;28;1012;-54
2021/12/08 00:17:14;;;;;;;;;;;;;;;29.50;20.60;96152.72;171114;28;1143;-55
2021/12/08 00:17:19;;;;;;;;;;;;;;;29.50;20.74;96155.38;171474;28;1044;-55
2021/12/08 00:17:24;;;;;;;;;;;;;;;29.51;20.57;96157.03;171960;28;940;-56
2021/12/08 00:17:29;;;;;;;;;;;;;;;29.53;20.54;96154.19;171056;28;1175;-55
2021/12/08 00:17:35;;;;;;;;;;;;;;;29.51;20.79;96153.53;171300;28;996;-56
2021/12/08 00:17:40;;;;;;;;;;;;;;;29.50;20.90;96158.03;171227;28;1134;-55
2021/12/08 00:17:45;;;;;;;;;;;;;;;29.50;20.65;96152.72;171080;28;818;-55
2021/12/08 00:17:50;;;;;;;;;;;;;;;29.53;20.66;96156.84;171273;28;1142;-55
2021/12/08 00:17:56;;;;;;;;;;;;;;;29.53;20.88;96148.88;171223;28;957;-55
2021/12/08 00:18:02;;;;;;;;;;;;;;;29.54;20.50;96155.81;170553;28;4262;-55
2021/12/08 00:18:09;;;;;;;;;;;;;;;29.52;20.57;96160.50;171207;28;822;-55
2021/12/08 00:18:15;;;;;;;;;;;;;;;29.50;20.53;96151.91;171013;28;1177;-55
2021/12/08 00:18:25;;;;;;;;;;;;;;;29.50;20.46;96155.38;171203;28;1179;-55
2021/12/08 00:18:32;;;;;;;;;;;;;;;29.52;20.76;96157.84;171163;28;889;-54
2021/12/08 00:18:43;;;;;;;;;;;;;;;29.53;20.67;96143.56;171234;28;1229;-55
2021/12/08 00:18:49;;;;;;;;;;;;;;;29.51;20.70;96151.72;171155;28;1221;-55
2021/12/08 00:18:58;;;;;;;;;;;;;;;29.52;20.79;96153.34;171280;28;881;-55
2021/12/08 00:19:03;;;;;;;;;;;;;;;29.56;20.67;96148.53;171064;28;877;-55
2021/12/08 00:19:08;;;;;;;;;;;;;;;29.55;20.62;96155.66;171210;28;1075;-55
2021/12/08 00:19:13;;;;;;;;;;;;;;;29.60;20.76;96152.47;171149;28;1115;-55
2021/12/08 00:19:18;;;;;;;;;;;;;;;29.57;20.78;96145.69;171310;28;810;-56
2021/12/08 00:19:24;;;;;;;;;;;;;;;29.59;20.62;96156.13;171224;28;1161;-55
2021/12/08 00:19:29;;;;;;;;;;;;;;;29.60;20.61;96150.63;171184;28;904;-56
2021/12/08 00:19:34;;;;;;;;;;;;;;;29.61;20.38;96151.44;171902;28;896;-56
2021/12/08 00:19:40;;;;;;;;;;;;;;;29.58;20.53;96149.16;171910;28;1095;-55
2021/12/08 00:19:45;;;;;;;;;;;;;;;29.57;20.64;96144.84;171886;28;893;-55
2021/12/08 00:19:50;;;;;;;;;;;;;;;29.54;20.64;96146.03;171836;28;1192;-55
2021/12/08 00:20:00;;;;;;;;;;;;;;;29.53;20.61;96152.34;171901;28;995;-56
2021/12/08 00:20:06;;;;;;;;;;;;;;;29.53;20.67;96144.38;171842;28;932;-55
2021/12/08 00:20:11;;;;;;;;;;;;;;;29.55;20.61;96146.88;171795;28;1102;-55
2021/12/08 00:20:16;;;;;;;;;;;;;;;29.57;20.54;96144.84;171899;28;779;-55
2021/12/08 00:20:22;;;;;;;;;;;;;;;29.59;20.68;96153.47;171853;28;790;-55
2021/12/08 00:20:30;;;;;;;;;;;;;;;29.61;20.59;96148.78;171770;28;1170;-55
2021/12/08 00:20:35;;;;;;;;;;;;;;;29.63;20.85;96154.78;171874;28;1106;-55
2021/12/08 00:20:41;;;;;;;;;;;;;;;29.57;20.54;96143.03;171221;28;814;-55
2021/12/08 00:20:47;;;;;;;;;;;;;;;29.58;20.64;96147.31;171117;28;1047;-55
2021/12/08 00:20:53;;;;;;;;;;;;;;;29.58;20.84;96144.69;171295;28;880;-55
2021/12/08 00:20:59;;;;;;;;;;;;;;;29.61;20.58;96146.97;171095;28;1119;-55
2021/12/08 00:21:07;;;;;;;;;;;;;;;29.61;20.61;96140.81;171232;28;766;-55
2021/12/08 00:21:12;;;;;;;;;;;;;;;29.58;20.54;96147.31;171029;28;1142;-55
2021/12/08 00:21:17;;;;;;;;;;;;;;;29.59;20.70;96151.63;171209;28;857;-56
2021/12/08 00:21:25;;;;;;;;;;;;;;;29.59;20.63;96146.31;171250;28;1190;-55
2021/12/08 00:21:30;;;;;;;;;;;;;;;29.60;20.82;96149.81;171209;28;533;-55
2021/12/08 00:21:35;;;;;;;;;;;;;;;29.61;20.62;96146.13;171249;28;1222;-55
2021/12/08 00:21:41;;;;;;;;;;;;;;;29.57;20.65;96145.69;171235;28;825;-55
2021/12/08 00:21:46;;;;;;;;;;;;;;;29.59;20.69;96145.50;171172;28;1107;-55
2021/12/08 00:21:51;;;;;;;;;;;;;;;29.60;20.38;96144.47;171242;28;794;-55
2021/12/08 00:21:56;;;;;;;;;;;;;;;29.62;20.64;96137.97;171211;28;881;-55
2021/12/08 00:22:02;;;;;;;;;;;;;;;29.63;20.76;96146.81;171110;28;1269;-55
2021/12/08 00:22:07;;;;;;;;;;;;;;;29.61;20.45;96146.13;170626;28;4221;-55
2021/12/08 00:22:12;;;;;;;;;;;;;;;29.62;20.85;96140.63;171040;28;1217;-54
2021/12/08 00:22:17;;;;;;;;;;;;;;;29.61;20.44;96146.97;171213;28;876;-55
2021/12/08 00:22:22;;;;;;;;;;;;;;;29.63;20.76;96150.28;171253;28;1363;-55
2021/12/08 00:22:28;;;;;;;;;;;;;;;29.64;20.43;96140.47;171140;28;944;-56
2021/12/08 00:22:33;;;;;;;;;;;;;;;29.63;20.79;96142.31;171247;28;1040;-56
2021/12/08 00:22:38;;;;;;;;;;;;;;;29.62;20.65;96145.13;171331;28;853;-55
2021/12/08 00:22:43;;;;;;;;;;;;;;;29.61;20.57;96144.31;171224;28;937;-56
2021/12/08 00:22:49;;;;;;;;;;;;;;;29.62;20.59;96143.28;170650;29;862;-54
2021/12/08 00:22:54;;;;;;;;;;;;;;;29.62;20.44;96147.78;170663;29;806;-55
2021/12/08 00:23:00;;;;;;;;;;;;;;;29.61;20.76;96144.31;170858;28;1403;-54
2021/12/08 00:23:05;;;;;;;;;;;;;;;29.60;20.56;96145.31;171143;28;870;-55
2021/12/08 00:23:10;;;;;;;;;;;;;;;29.60;20.82;96137.34;171277;28;1177;-56
2021/12/08 00:23:16;;;;;;;;;;;;;;;29.61;20.67;96146.13;171187;28;937;-55
2021/12/08 00:23:21;;;;;;;;;;;;;;;29.62;20.62;96137.97;171902;28;1162;-55
2021/12/08 00:23:26;;;;;;;;;;;;;;;29.63;20.59;96144.16;171851;28;869;-54
2021/12/08 00:23:32;;;;;;;;;;;;;;;29.62;20.61;96143.28;171782;28;1115;-55
2021/12/08 00:23:37;;;;;;;;;;;;;;;29.61;20.64;96140.81;171976;28;936;-55
2021/12/08 00:23:42;;;;;;;;;;;;;;;29.59;20.50;96141.00;171957;28;826;-55
2021/12/08 00:23:47;;;;;;;;;;;;;;;29.60;20.63;96142.66;171914;28;873;-55
2021/12/08 00:23:53;;;;;;;;;;;;;;;29.60;20.63;96142.66;171907;28;933;-55
2021/12/08 00:23:58;;;;;;;;;;;;;;;29.61;20.53;96144.31;171716;28;1257;-55
2021/12/08 00:24:03;;;;;;;;;;;;;;;29.60;20.68;96137.34;171821;28;1016;-55
2021/12/08 00:24:09;;;;;;;;;;;;;;;29.59;20.69;96142.84;171783;28;1090;-54
2021/12/08 00:24:14;;;;;;;;;;;;;;;29.60;20.35;96140.00;171873;28;881;-55
2021/12/08 00:24:19;;;;;;;;;;;;;;;29.57;20.47;96137.72;171877;28;1162;-55
2021/12/08 00:24:25;;;;;;;;;;;;;;;29.56;20.41;96145.88;171933;28;513;-55
2021/12/08 00:24:30;;;;;;;;;;;;;;;29.56;20.73;96135.25;171660;28;1133;-55
2021/12/08 00:24:36;;;;;;;;;;;;;;;29.56;20.75;96136.06;171922;28;1024;-55
2021/12/08 00:24:41;;;;;;;;;;;;;;;29.60;20.62;96139.16;171928;28;929;-55
2021/12/08 00:24:46;;;;;;;;;;;;;;;29.59;20.57;96134.88;171060;28;1418;-55
2021/12/08 00:24:51;;;;;;;;;;;;;;;29.59;20.58;96132.22;171542;28;900;-55
2021/12/08 00:24:56;;;;;;;;;;;;;;;29.59;20.51;96142.84;171583;28;1237;-55
2021/12/08 00:25:02;;;;;;;;;;;;;;;29.56;20.60;96133.41;171825;28;806;-56
2021/12/08 00:25:07;;;;;;;;;;;;;;;29.59;20.68;96135.69;171805;28;1205;-55
2021/12/08 00:25:12;;;;;;;;;;;;;;;29.58;20.52;96144.69;171834;28;1036;-55
2021/12/08 00:25:17;;;;;;;;;;;;;;;29.58;20.56;96146.50;171734;28;1110;-55
2021/12/08 00:25:22;;;;;;;;;;;;;;;29.56;20.66;96138.72;170638;29;1020;-55
2021/12/08 00:25:28;;;;;;;;;;;;;;;29.54;20.60;96140.72;170524;29;910;-55
2021/12/08 00:25:33;;;;;;;;;;;;;;;29.58;20.37;96134.03;171203;28;1127;-55
2021/12/08 00:25:38;;;;;;;;;;;;;;;29.61;20.45;96146.13;171297;28;897;-55
2021/12/08 00:25:43;;;;;;;;;;;;;;;29.61;20.59;96140.81;171173;28;1233;-55
2021/12/08 00:25:49;;;;;;;;;;;;;;;29.59;20.70;96140.19;171151;28;953;-55
2021/12/08 00:25:54;;;;;;;;;;;;;;;29.58;20.37;96143.84;171230;28;1166;-55
2021/12/08 00:25:59;;;;;;;;;;;;;;;29.62;20.58;96139.81;171116;28;885;-55
2021/12/08 00:26:05;;;;;;;;;;;;;;;29.64;20.48;96141.31;170701;28;4362;-55
2021/12/08 00:26:10;;;;;;;;;;;;;;;29.62;20.87;96137.97;171171;28;834;-55
2021/12/08 00:26:15;;;;;;;;;;;;;;;29.61;20.43;96139.00;171229;28;886;-55
2021/12/08 00:26:20;;;;;;;;;;;;;;;29.60;20.37;96141.81;171210;28;1146;-55
2021/12/08 00:26:25;;;;;;;;;;;;;;;29.57;20.62;96140.38;171224;28;862;-55
2021/12/08 00:26:31;;;;;;;;;;;;;;;29.57;20.68;96145.69;171158;28;1213;-55
2021/12/08 00:26:36;;;;;;;;;;;;;;;29.57;20.77;96143.03;171306;28;904;-55
2021/12/08 00:26:41;;;;;;;;;;;;;;;29.58;20.58;96136.69;171151;28;1103;-55
2021/12/08 00:26:46;;;;;;;;;;;;;;;29.57;20.63;96142.19;171230;28;818;-55
2021/12/08 00:26:54;;;;;;;;;;;;;;;29.55;20.57;96138.91;171191;28;1028;-55
2021/12/08 00:26:59;;;;;;;;;;;;;;;29.55;20.60;96139.72;171106;28;830;-55
2021/12/08 00:27:04;;;;;;;;;;;;;;;29.56;20.71;96136.06;171122;28;1086;-55
2021/12/08 00:27:10;;;;;;;;;;;;;;;29.56;20.65;96133.41;171165;28;984;-55
2021/12/08 00:27:15;;;;;;;;;;;;;;;29.57;20.38;96136.88;171032;28;1103;-55
2021/12/08 00:27:20;;;;;;;;;;;;;;;29.59;20.59;96137.53;171236;28;798;-56
2021/12/08 00:27:25;;;;;;;;;;;;;;;29.60;20.67;96140.00;171267;28;824;-54
2021/12/08 00:27:30;;;;;;;;;;;;;;;29.60;20.38;96137.34;171107;28;1032;-55
2021/12/08 00:27:36;;;;;;;;;;;;;;;29.56;20.63;96133.41;171341;28;925;-55
2021/12/08 00:27:41;;;;;;;;;;;;;;;29.58;20.58;96135.88;171140;28;1126;-55
2021/12/08 00:27:46;;;;;;;;;;;;;;;29.61;20.65;96133.66;171250;28;826;-54
2021/12/08 00:27:51;;;;;;;;;;;;;;;29.62;20.44;96131.84;171244;28;1173;-56
2021/12/08 00:27:57;;;;;;;;;;;;;;;29.62;20.71;96137.16;171192;28;1004;-56
2021/12/08 00:28:03;;;;;;;;;;;;;;;29.58;20.74;96139.38;171164;28;1106;-54
2021/12/08 00:28:08;;;;;;;;;;;;;;;29.58;20.51;96136.69;171257;28;857;-55
2021/12/08 00:28:13;;;;;;;;;;;;;;;29.58;20.32;96134.03;171214;28;917;-55
2021/12/08 00:28:18;;;;;;;;;;;;;;;29.59;20.33;96138.34;170616;29;798;-55
2021/12/08 00:28:23;;;;;;;;;;;;;;;29.56;20.58;96138.72;170642;29;826;-55
2021/12/08 00:28:29;;;;;;;;;;;;;;;29.52;20.82;96136.59;170909;28;1088;-55
2021/12/08 00:28:34;;;;;;;;;;;;;;;29.46;20.74;96143.41;171292;28;882;-55
2021/12/08 00:28:39;;;;;;;;;;;;;;;29.45;20.89;96139.94;171263;28;1068;-55
2021/12/08 00:28:44;;;;;;;;;;;;;;;29.50;20.90;96134.13;171245;28;957;-55
2021/12/08 00:28:50;;;;;;;;;;;;;;;29.51;20.54;96134.94;171124;28;1078;-54
2021/12/08 00:28:55;;;;;;;;;;;;;;;29.51;20.64;96141.09;171262;28;957;-56
2021/12/08 00:29:00;;;;;;;;;;;;;;;29.51;20.64;96145.56;171191;28;884;-55
2021/12/08 00:29:05;;;;;;;;;;;;;;;29.51;20.86;96150.88;171118;28;1343;-55
2021/12/08 00:29:10;;;;;;;;;;;;;;;29.52;20.63;96137.41;171153;28;929;-55
2021/12/08 00:29:16;;;;;;;;;;;;;;;29.55;20.73;96139.72;171257;28;1015;-56
2021/12/08 00:29:21;;;;;;;;;;;;;;;29.57;20.54;96143.03;171237;28;989;-55
2021/12/08 00:29:26;;;;;;;;;;;;;;;29.56;20.64;96141.38;171255;28;1268;-56
2021/12/08 00:29:31;;;;;;;;;;;;;;;29.56;20.52;96138.72;171327;28;806;-55
2021/12/08 00:29:37;;;;;;;;;;;;;;;29.55;20.79;96138.91;171220;28;1220;-55
2021/12/08 00:29:42;;;;;;;;;;;;;;;29.55;20.54;96139.72;171223;28;989;-56
2021/12/08 00:29:47;;;;;;;;;;;;;;;29.60;20.58;96137.34;171331;28;810;-55
2021/12/08 00:29:52;;;;;;;;;;;;;;;29.62;20.63;96137.16;171201;28;936;-56
2021/12/08 00:29:58;;;;;;;;;;;;;;;29.61;20.65;96136.31;171793;28;865;-55
2021/12/08 00:30:03;;;;;;;;;;;;;;;29.59;20.57;96134.88;171253;28;4323;-55
2021/12/08 00:30:08;;;;;;;;;;;;;;;29.59;20.57;96140.19;171774;28;1067;-55
2021/12/08 00:30:15;;;;;;;;;;;;;;;29.54;20.36;96139.88;171797;28;1110;-55
2021/12/08 00:30:20;;;;;;;;;;;;;;;29.54;20.60;96140.72;171912;28;863;-55
2021/12/08 00:30:25;;;;;;;;;;;;;;;29.55;20.78;96145.03;171747;28;1258;-55
2021/12/08 00:30:31;;;;;;;;;;;;;;;29.55;20.56;96139.72;171908;28;1004;-55
2021/12/08 00:30:36;;;;;;;;;;;;;;;29.61;20.62;96143.47;171498;28;1457;-54
2021/12/08 00:30:43;;;;;;;;;;;;;;;29.58;20.66;96138.53;171339;28;755;-55
2021/12/08 00:30:49;;;;;;;;;;;;;;;29.57;20.53;96139.53;172588;28;1043;-55
2021/12/08 00:30:55;;;;;;;;;;;;;;;29.57;20.58;96136.88;172497;28;905;-55
2021/12/08 00:31:01;;;;;;;;;;;;;;;29.59;20.71;96137.53;172410;28;1189;-55
2021/12/08 00:31:06;;;;;;;;;;;;;;;29.58;20.54;96142.03;172499;28;707;-55
2021/12/08 00:31:12;;;;;;;;;;;;;;;29.58;20.54;96138.53;172450;28;1157;-55
2021/12/08 00:31:17;;;;;;;;;;;;;;;29.58;20.40;96138.53;172629;28;821;-55
2021/12/08 00:31:22;;;;;;;;;;;;;;;29.57;20.47;96139.53;172483;28;1170;-55
2021/12/08 00:31:27;;;;;;;;;;;;;;;29.55;20.70;96139.72;172484;28;1238;-55
2021/12/08 00:31:34;;;;;;;;;;;;;;;29.53;20.71;96139.06;172626;28;908;-56
2021/12/08 00:31:40;;;;;;;;;;;;;;;29.51;20.65;96134.94;171846;28;893;-55
2021/12/08 00:31:46;;;;;;;;;;;;;;;29.53;20.59;96138.25;171967;28;1115;-55
2021/12/08 00:31:52;;;;;;;;;;;;;;;29.55;20.66;96141.56;172536;28;880;-55
2021/12/08 00:31:58;;;;;;;;;;;;;;;29.57;20.75;96134.22;172023;28;1067;-55
2021/12/08 00:32:03;;;;;;;;;;;;;;;29.57;20.65;96134.22;172432;28;1011;-54
2021/12/08 00:32:09;;;;;;;;;;;;;;;29.58;20.31;96134.03;172634;28;789;-55
2021/12/08 00:32:15;;;;;;;;;;;;;;;29.61;20.53;96139.00;172431;28;1894;-57
2021/12/08 00:32:25;;;;;;;;;;;;;;;29.62;20.45;96131.84;172654;28;801;-55
2021/12/08 00:32:33;;;;;;;;;;;;;;;29.62;20.75;96135.31;172461;28;940;-55
2021/12/08 00:32:38;;;;;;;;;;;;;;;29.59;20.53;96126.91;171975;28;897;-54
2021/12/08 00:32:44;;;;;;;;;;;;;;;29.61;20.41;96132.84;171837;28;972;-55
2021/12/08 00:32:51;;;;;;;;;;;;;;;29.61;20.32;96135.50;170585;28;917;-55
2021/12/08 00:32:58;;;;;;;;;;;;;;;29.62;20.54;96137.97;170405;28;1124;-55
2021/12/08 00:33:03;;;;;;;;;;;;;;;29.61;20.32;96132.84;171724;28;1245;-55
2021/12/08 00:33:08;;;;;;;;;;;;;;;29.61;20.49;96130.19;171775;28;1071;-54
2021/12/08 00:33:13;;;;;;;;;;;;;;;29.62;20.65;96137.16;171816;28;936;-55
2021/12/08 00:33:19;;;;;;;;;;;;;;;29.60;20.61;96132.03;171883;28;780;-55
2021/12/08 00:33:26;;;;;;;;;;;;;;;29.62;20.63;96132.66;171907;28;1344;-55
2021/12/08 00:33:32;;;;;;;;;;;;;;;29.63;20.45;96129.03;171152;28;1131;-55
2021/12/08 00:33:37;;;;;;;;;;;;;;;29.59;20.47;96133.03;171268;28;818;-55
2021/12/08 00:33:42;;;;;;;;;;;;;;;29.58;20.58;96126.06;171162;28;822;-55
2021/12/08 00:33:47;;;;;;;;;;;;;;;29.58;20.62;96136.69;171205;28;1175;-56
2021/12/08 00:33:53;;;;;;;;;;;;;;;29.60;20.57;96131.19;171258;28;790;-55
2021/12/08 00:33:58;;;;;;;;;;;;;;;29.60;20.77;96129.38;171145;28;1174;-55
2021/12/08 00:34:03;;;;;;;;;;;;;;;29.60;20.40;96128.53;171116;28;925;-55
2021/12/08 00:34:08;;;;;;;;;;;;;;;29.61;20.34;96130.19;170429;28;13183;-55
2021/12/08 00:34:14;;;;;;;;;;;;;;;29.57;20.65;96129.75;171276;28;907;-55
2021/12/08 00:34:19;;;;;;;;;;;;;;;29.56;20.41;96136.06;171145;28;1290;-55
2021/12/08 00:34:27;;;;;;;;;;;;;;;29.56;20.44;96125.44;171239;28;1130;-56